This is the latest recevied weather packets stored in our database for station/object K6MBY. If no packets are shown the sender has not sent any weather packets the latest 10 day(s).
| Time | Temp. | Humidity | Pressure | Rain* | Wind** | Luminosity | Snow |
|---|---|---|---|---|---|---|---|
| 1777796421 | 17.22° C | 54% | 1018 hPa | 0 mm | - | 0 W/m² | - |
| 1777796115 | 17.22° C | 54% | 1018 hPa | 0 mm | - | 0 W/m² | - |
| 1777795813 | 17.22° C | 55% | 1018.2 hPa | 0 mm | - | 0 W/m² | - |
| 1777795509 | 17.22° C | 55% | 1018.2 hPa | 0 mm | - | 0 W/m² | - |
| 1777795206 | 17.22° C | 54% | 1018 hPa | 0 mm | - | 0 W/m² | - |
| 1777794902 | 17.22° C | 56% | 1018 hPa | 0 mm | - | 0 W/m² | - |
| 1777794599 | 17.22° C | 55% | 1017.9 hPa | 0 mm | - | 0 W/m² | - |
| 1777794294 | 17.22° C | 56% | 1018 hPa | 0 mm | - | 0 W/m² | - |
| 1777793990 | 16.67° C | 56% | 1018.2 hPa | 0 mm | - | 0 W/m² | - |
| 1777793687 | 17.22° C | 57% | 1018.1 hPa | 0 mm | - | 0 W/m² | - |
| 1777793385 | 17.22° C | 56% | 1018 hPa | 0 mm | - | 0 W/m² | - |
| 1777793083 | 17.22° C | 56% | 1018 hPa | 0 mm | - | 0 W/m² | - |
| 1777792779 | 17.22° C | 55% | 1017.9 hPa | 0 mm | - | 0 W/m² | - |
| 1777792476 | 16.11° C | 62% | 1018 hPa | 0 mm | - | 0 W/m² | - |
| 1777792172 | 16.11° C | 61% | 1018.1 hPa | 0 mm | - | 0 W/m² | - |
| 1777791870 | 16.67° C | 58% | 1018.1 hPa | 0 mm | - | 0 W/m² | - |
| 1777791568 | 15.56° C | 61% | 1018.1 hPa | 0 mm | - | 0 W/m² | - |
| 1777791265 | 15.56° C | 65% | 1018 hPa | 0 mm | - | 0 W/m² | - |
| 1777790963 | 16.11° C | 64% | 1018.2 hPa | 0 mm | - | 0 W/m² | - |
| 1777790660 | 16.67° C | 61% | 1018.2 hPa | 0 mm | - | 0 W/m² | - |
| 1777790356 | 16.11° C | 64% | 1017.9 hPa | 0 mm | - | 0 W/m² | - |
| 1777790054 | 14.44° C | 68% | 1018.1 hPa | 0 mm | - | 0 W/m² | - |
| 1777789753 | 15° C | 69% | 1018.1 hPa | 0 mm | - | 0 W/m² | - |
| 1777789451 | 15° C | 68% | 1018.2 hPa | 0 mm | - | 0 W/m² | - |
| 1777789149 | 15° C | 69% | 1017.9 hPa | 0 mm | - | 0 W/m² | - |
* Rain latest hour (hover to see other rain measurements)
** Current wind speed in m/s (hover to see current wind gust speed)